createdAt,value
2023-01-23T00:00:54.873Z,1029.66
2023-01-23T00:01:54.856Z,1029.65
2023-01-23T00:02:54.835Z,1029.66
2023-01-23T00:03:54.910Z,1029.61
2023-01-23T00:04:54.809Z,1029.66
2023-01-23T00:05:54.818Z,1029.66
2023-01-23T00:06:54.800Z,1029.67
2023-01-23T00:07:54.799Z,1029.67
2023-01-23T00:08:54.776Z,1029.69
2023-01-23T00:09:54.770Z,1029.69
2023-01-23T00:10:54.757Z,1029.72
2023-01-23T00:11:54.784Z,1029.70
2023-01-23T00:12:54.779Z,1029.70
2023-01-23T00:13:54.716Z,1029.72
2023-01-23T00:14:54.719Z,1029.75
2023-01-23T00:15:54.797Z,1029.75
2023-01-23T00:16:54.948Z,1029.75
2023-01-23T00:17:54.971Z,1029.75
2023-01-23T00:18:54.698Z,1029.74
2023-01-23T00:19:54.659Z,1029.78
2023-01-23T00:20:54.667Z,1029.80
2023-01-23T00:21:54.643Z,1029.82
2023-01-23T00:22:54.615Z,1029.76
2023-01-23T00:23:54.637Z,1029.77
2023-01-23T00:24:54.631Z,1029.70
2023-01-23T00:25:54.618Z,1029.72
2023-01-23T00:26:54.590Z,1029.75
2023-01-23T00:27:54.609Z,1029.74
2023-01-23T00:28:54.586Z,1029.73
2023-01-23T00:29:54.649Z,1029.74
2023-01-23T00:30:54.620Z,1029.72
2023-01-23T00:31:54.579Z,1029.73
2023-01-23T00:32:54.512Z,1029.71
2023-01-23T00:33:54.596Z,1029.72
2023-01-23T00:34:54.562Z,1029.75
2023-01-23T00:35:54.538Z,1029.75
2023-01-23T00:36:54.500Z,1029.72
2023-01-23T00:37:54.715Z,1029.77
2023-01-23T00:38:54.454Z,1029.77
2023-01-23T00:39:55.189Z,1029.78
2023-01-23T00:40:54.664Z,1029.75
2023-01-23T00:41:54.455Z,1029.77
2023-01-23T00:42:54.494Z,1029.76
2023-01-23T00:43:54.689Z,1029.75
2023-01-23T00:44:54.378Z,1029.82
2023-01-23T00:45:54.527Z,1029.79
2023-01-23T00:46:54.365Z,1029.81
2023-01-23T00:47:54.378Z,1029.83
2023-01-23T00:48:54.557Z,1029.85
2023-01-23T00:49:54.343Z,1029.82
2023-01-23T00:50:54.369Z,1029.83
2023-01-23T00:51:55.214Z,1029.85
2023-01-23T00:52:54.441Z,1029.82
2023-01-23T00:53:54.306Z,1029.80
2023-01-23T00:54:54.495Z,1029.83
2023-01-23T00:55:54.393Z,1029.84
2023-01-23T00:56:54.304Z,1029.87
2023-01-23T00:57:54.242Z,1029.90
2023-01-23T00:58:54.243Z,1029.87
2023-01-23T00:59:54.238Z,1029.87
2023-01-23T01:00:54.231Z,1029.88
2023-01-23T01:01:54.307Z,1029.95
2023-01-23T01:02:54.286Z,1029.98
2023-01-23T01:03:54.296Z,1029.97
2023-01-23T01:04:54.183Z,1030.00
2023-01-23T01:05:54.194Z,1030.03
2023-01-23T01:06:54.143Z,1030.02
2023-01-23T01:07:54.202Z,1030.04
2023-01-23T01:08:54.131Z,1029.99
2023-01-23T01:09:54.143Z,1030.00
2023-01-23T01:10:54.105Z,1030.02
2023-01-23T01:11:54.103Z,1030.04
2023-01-23T01:12:54.097Z,1030.04
2023-01-23T01:13:54.101Z,1030.05
2023-01-23T01:14:54.065Z,1030.03
2023-01-23T01:15:54.101Z,1030.02
2023-01-23T01:16:54.086Z,1030.05
2023-01-23T01:17:54.053Z,1030.03
2023-01-23T01:18:55.002Z,1030.08
2023-01-23T01:19:54.045Z,1030.11
2023-01-23T01:20:54.126Z,1030.07
2023-01-23T01:21:53.998Z,1030.09
2023-01-23T01:22:53.978Z,1030.08
2023-01-23T01:23:54.000Z,1030.11
2023-01-23T01:24:53.988Z,1030.13
2023-01-23T01:25:53.971Z,1030.11
2023-01-23T01:26:53.960Z,1030.13
2023-01-23T01:27:54.625Z,1030.16
2023-01-23T01:28:53.975Z,1030.16
2023-01-23T01:29:53.931Z,1030.17
2023-01-23T01:30:54.126Z,1030.20
2023-01-23T01:31:53.951Z,1030.21
2023-01-23T01:32:53.884Z,1030.17
2023-01-23T01:33:53.881Z,1030.17
2023-01-23T01:34:53.841Z,1030.18
2023-01-23T01:35:53.880Z,1030.14
2023-01-23T01:36:53.845Z,1030.20
2023-01-23T01:37:53.837Z,1030.18
2023-01-23T01:38:53.831Z,1030.22
2023-01-23T01:39:53.879Z,1030.25
2023-01-23T01:40:53.801Z,1030.23
2023-01-23T01:41:53.819Z,1030.23
2023-01-23T01:42:53.782Z,1030.22
2023-01-23T01:43:53.763Z,1030.20
2023-01-23T01:44:53.754Z,1030.18
2023-01-23T01:45:53.761Z,1030.19
2023-01-23T01:46:53.805Z,1030.22
2023-01-23T01:47:53.714Z,1030.23
2023-01-23T01:48:53.735Z,1030.25
2023-01-23T01:49:53.696Z,1030.26
2023-01-23T01:50:53.729Z,1030.29
2023-01-23T01:51:53.720Z,1030.29
2023-01-23T01:52:53.698Z,1030.30
2023-01-23T01:53:53.671Z,1030.29
2023-01-23T01:54:53.655Z,1030.30
2023-01-23T01:55:54.316Z,1030.27
2023-01-23T01:56:53.624Z,1030.29
2023-01-23T01:57:53.594Z,1030.30
2023-01-23T01:58:53.611Z,1030.31
2023-01-23T01:59:53.595Z,1030.34
2023-01-23T02:00:53.655Z,1030.34
2023-01-23T02:01:53.588Z,1030.34
2023-01-23T02:02:53.846Z,1030.30
2023-01-23T02:03:53.548Z,1030.33
2023-01-23T02:04:53.545Z,1030.28
2023-01-23T02:05:53.531Z,1030.34
2023-01-23T02:06:53.531Z,1030.32
2023-01-23T02:07:53.493Z,1030.31
2023-01-23T02:08:53.705Z,1030.34
2023-01-23T02:09:53.480Z,1030.34
2023-01-23T02:10:53.509Z,1030.35
2023-01-23T02:11:53.497Z,1030.28
2023-01-23T02:12:53.499Z,1030.32
2023-01-23T02:13:53.454Z,1030.32
2023-01-23T02:14:53.454Z,1030.35
2023-01-23T02:15:53.432Z,1030.33
2023-01-23T02:16:53.431Z,1030.28
2023-01-23T02:17:53.415Z,1030.32
2023-01-23T02:18:53.394Z,1030.33
2023-01-23T02:19:53.363Z,1030.30
2023-01-23T02:20:53.377Z,1030.30
2023-01-23T02:21:53.363Z,1030.30
2023-01-23T02:22:53.369Z,1030.31
2023-01-23T02:23:53.310Z,1030.31
2023-01-23T02:24:53.321Z,1030.30
2023-01-23T02:25:53.347Z,1030.29
2023-01-23T02:26:53.308Z,1030.26
2023-01-23T02:27:53.302Z,1030.27
2023-01-23T02:28:53.269Z,1030.27
2023-01-23T02:29:53.288Z,1030.29
2023-01-23T02:30:53.327Z,1030.24
2023-01-23T02:31:53.299Z,1030.25
2023-01-23T02:32:53.225Z,1030.25
2023-01-23T02:33:53.244Z,1030.23
2023-01-23T02:34:53.198Z,1030.22
2023-01-23T02:35:53.189Z,1030.23
2023-01-23T02:36:53.221Z,1030.27
2023-01-23T02:37:53.200Z,1030.25
2023-01-23T02:38:53.160Z,1030.32
2023-01-23T02:39:53.837Z,1030.35
2023-01-23T02:40:53.135Z,1030.37
2023-01-23T02:41:53.137Z,1030.42
2023-01-23T02:42:53.134Z,1030.42
2023-01-23T02:43:53.100Z,1030.46
2023-01-23T02:44:53.109Z,1030.47
2023-01-23T02:45:53.159Z,1030.47
2023-01-23T02:46:53.070Z,1030.49
2023-01-23T02:47:53.079Z,1030.47
2023-01-23T02:48:53.063Z,1030.47
2023-01-23T02:49:53.043Z,1030.51
2023-01-23T02:50:53.275Z,1030.48
2023-01-23T02:51:53.023Z,1030.51
2023-01-23T02:52:53.040Z,1030.54
2023-01-23T02:53:53.059Z,1030.55
2023-01-23T02:54:52.989Z,1030.59
2023-01-23T02:55:52.981Z,1030.63
2023-01-23T02:56:52.969Z,1030.57
2023-01-23T02:57:52.960Z,1030.62
2023-01-23T02:58:53.002Z,1030.63
2023-01-23T02:59:53.170Z,1030.64
2023-01-23T03:00:52.956Z,1030.64
2023-01-23T03:01:52.936Z,1030.66
2023-01-23T03:02:52.921Z,1030.65
2023-01-23T03:03:52.909Z,1030.66
2023-01-23T03:04:52.890Z,1030.71
2023-01-23T03:05:52.868Z,1030.71
2023-01-23T03:06:52.877Z,1030.69
2023-01-23T03:07:52.862Z,1030.72
2023-01-23T03:08:52.826Z,1030.74
2023-01-23T03:09:52.880Z,1030.70
2023-01-23T03:10:52.816Z,1030.72
2023-01-23T03:11:52.810Z,1030.70
2023-01-23T03:12:52.799Z,1030.71
2023-01-23T03:13:52.843Z,1030.72
2023-01-23T03:14:52.803Z,1030.77
2023-01-23T03:15:52.757Z,1030.74
2023-01-23T03:16:52.755Z,1030.78
2023-01-23T03:17:52.761Z,1030.76
2023-01-23T03:18:54.731Z,1030.76
2023-01-23T03:19:52.718Z,1030.80
2023-01-23T03:20:52.722Z,1030.80
2023-01-23T03:21:52.694Z,1030.82
2023-01-23T03:22:52.710Z,1030.78
2023-01-23T03:23:52.685Z,1030.76
2023-01-23T03:24:52.676Z,1030.79
2023-01-23T03:25:52.717Z,1030.81
2023-01-23T03:26:53.597Z,1030.83
2023-01-23T03:27:52.651Z,1030.78
2023-01-23T03:28:53.607Z,1030.80
2023-01-23T03:29:52.653Z,1030.77
2023-01-23T03:30:52.629Z,1030.79
2023-01-23T03:31:52.716Z,1030.80
2023-01-23T03:32:52.580Z,1030.77
2023-01-23T03:33:53.543Z,1030.83
2023-01-23T03:34:53.513Z,1030.81
2023-01-23T03:35:52.625Z,1030.82
2023-01-23T03:36:52.672Z,1030.83
2023-01-23T03:37:52.527Z,1030.83
2023-01-23T03:38:52.955Z,1030.85
2023-01-23T03:39:52.518Z,1030.85
2023-01-23T03:40:52.509Z,1030.88
2023-01-23T03:41:52.483Z,1030.89
2023-01-23T03:42:52.532Z,1030.91
2023-01-23T03:43:52.477Z,1030.92
2023-01-23T03:44:52.448Z,1030.95
2023-01-23T03:45:52.695Z,1030.94
2023-01-23T03:46:52.446Z,1030.97
2023-01-23T03:47:52.415Z,1030.99
2023-01-23T03:48:52.411Z,1031.01
2023-01-23T03:49:52.393Z,1031.03
2023-01-23T03:50:52.468Z,1031.01
2023-01-23T03:51:52.379Z,1031.04
2023-01-23T03:52:52.378Z,1031.04
2023-01-23T03:53:52.347Z,1031.07
2023-01-23T03:54:52.374Z,1031.06
2023-01-23T03:55:52.365Z,1031.09
2023-01-23T03:56:52.348Z,1031.07
2023-01-23T03:57:52.325Z,1031.12
2023-01-23T03:58:52.299Z,1031.13
2023-01-23T03:59:52.399Z,1031.13
2023-01-23T04:00:52.335Z,1031.14
2023-01-23T04:01:52.321Z,1031.18
2023-01-23T04:02:52.325Z,1031.18
2023-01-23T04:03:52.260Z,1031.18
2023-01-23T04:04:52.225Z,1031.20
2023-01-23T04:05:52.213Z,1031.20
2023-01-23T04:06:52.213Z,1031.16
2023-01-23T04:07:52.217Z,1031.17
2023-01-23T04:08:52.220Z,1031.13
2023-01-23T04:09:52.185Z,1031.18
2023-01-23T04:10:52.160Z,1031.19
2023-01-23T04:11:52.158Z,1031.21
2023-01-23T04:12:52.163Z,1031.25
2023-01-23T04:13:52.199Z,1031.24
2023-01-23T04:14:52.127Z,1031.26
2023-01-23T04:15:52.116Z,1031.20
2023-01-23T04:16:52.168Z,1031.24
2023-01-23T04:17:52.129Z,1031.26
2023-01-23T04:18:52.125Z,1031.25
2023-01-23T04:19:52.078Z,1031.19
2023-01-23T04:20:52.071Z,1031.26
2023-01-23T04:21:52.050Z,1031.24
2023-01-23T04:22:52.038Z,1031.25
2023-01-23T04:23:52.059Z,1031.26
2023-01-23T04:24:52.010Z,1031.28
2023-01-23T04:25:52.680Z,1031.27
2023-01-23T04:26:52.003Z,1031.29
2023-01-23T04:27:52.001Z,1031.30
2023-01-23T04:28:52.026Z,1031.33
2023-01-23T04:29:51.955Z,1031.31
2023-01-23T04:30:52.058Z,1031.28
2023-01-23T04:31:52.279Z,1031.25
2023-01-23T04:32:51.945Z,1031.25
2023-01-23T04:33:51.920Z,1031.24
2023-01-23T04:34:51.924Z,1031.24
2023-01-23T04:35:51.933Z,1031.25
2023-01-23T04:36:51.920Z,1031.23
2023-01-23T04:37:51.863Z,1031.23
2023-01-23T04:38:51.870Z,1031.25
2023-01-23T04:39:51.875Z,1031.25
2023-01-23T04:40:51.892Z,1031.27
2023-01-23T04:41:51.840Z,1031.31
2023-01-23T04:42:51.883Z,1031.28
2023-01-23T04:43:51.811Z,1031.30
2023-01-23T04:44:51.806Z,1031.31
2023-01-23T04:45:51.818Z,1031.34
2023-01-23T04:46:51.803Z,1031.37
2023-01-23T04:47:51.766Z,1031.37
2023-01-23T04:48:51.758Z,1031.38
2023-01-23T04:49:51.748Z,1031.41
2023-01-23T04:50:51.805Z,1031.37
2023-01-23T04:51:51.802Z,1031.42
2023-01-23T04:52:51.712Z,1031.42
2023-01-23T04:53:51.711Z,1031.41
2023-01-23T04:54:51.714Z,1031.44
2023-01-23T04:55:51.708Z,1031.43
2023-01-23T04:56:51.684Z,1031.44
2023-01-23T04:57:52.611Z,1031.42
2023-01-23T04:58:51.654Z,1031.46
2023-01-23T04:59:51.636Z,1031.48
2023-01-23T05:00:51.625Z,1031.46
2023-01-23T05:01:51.631Z,1031.48
2023-01-23T05:02:51.673Z,1031.50
2023-01-23T05:03:51.624Z,1031.50
2023-01-23T05:04:51.579Z,1031.49
2023-01-23T05:05:51.561Z,1031.50
2023-01-23T05:06:51.545Z,1031.50
2023-01-23T05:07:51.545Z,1031.47
2023-01-23T05:08:52.564Z,1031.49
2023-01-23T05:09:51.523Z,1031.50
2023-01-23T05:10:51.517Z,1031.51
2023-01-23T05:11:51.498Z,1031.49
2023-01-23T05:12:51.473Z,1031.47
2023-01-23T05:13:51.521Z,1031.49
2023-01-23T05:14:51.507Z,1031.47
2023-01-23T05:15:52.440Z,1031.45
2023-01-23T05:16:51.433Z,1031.46
2023-01-23T05:17:51.431Z,1031.42
2023-01-23T05:18:51.441Z,1031.43
2023-01-23T05:19:51.424Z,1031.44
2023-01-23T05:20:51.404Z,1031.43
2023-01-23T05:21:51.455Z,1031.45
2023-01-23T05:22:51.385Z,1031.44
2023-01-23T05:23:51.373Z,1031.42
2023-01-23T05:24:51.395Z,1031.40
2023-01-23T05:25:51.419Z,1031.38
2023-01-23T05:26:51.419Z,1031.38
2023-01-23T05:27:51.326Z,1031.39
2023-01-23T05:28:51.328Z,1031.38
2023-01-23T05:29:51.314Z,1031.39
2023-01-23T05:30:51.413Z,1031.37
2023-01-23T05:31:51.420Z,1031.37
2023-01-23T05:32:51.264Z,1031.39
2023-01-23T05:33:51.288Z,1031.35
2023-01-23T05:34:51.244Z,1031.37
2023-01-23T05:35:51.243Z,1031.35
2023-01-23T05:36:51.324Z,1031.34
2023-01-23T05:37:51.227Z,1031.33
2023-01-23T05:38:51.206Z,1031.35
2023-01-23T05:39:51.206Z,1031.38
2023-01-23T05:40:51.170Z,1031.37
2023-01-23T05:41:51.176Z,1031.36
2023-01-23T05:42:51.161Z,1031.35
2023-01-23T05:43:51.152Z,1031.39
2023-01-23T05:44:51.130Z,1031.39
2023-01-23T05:45:51.161Z,1031.41
2023-01-23T05:46:51.127Z,1031.43
2023-01-23T05:47:51.135Z,1031.40
2023-01-23T05:48:51.121Z,1031.47
2023-01-23T05:49:51.085Z,1031.47
2023-01-23T05:50:51.102Z,1031.49
2023-01-23T05:51:51.076Z,1031.52
2023-01-23T05:52:51.056Z,1031.52
2023-01-23T05:53:51.052Z,1031.53
2023-01-23T05:54:51.011Z,1031.57
2023-01-23T05:55:51.022Z,1031.58
2023-01-23T05:56:51.012Z,1031.58
2023-01-23T05:57:51.014Z,1031.57
2023-01-23T05:58:50.969Z,1031.61
2023-01-23T05:59:51.185Z,1031.58
2023-01-23T06:00:50.965Z,1031.61
2023-01-23T06:01:50.954Z,1031.57
2023-01-23T06:02:51.014Z,1031.62
2023-01-23T06:03:50.999Z,1031.64
2023-01-23T06:04:50.916Z,1031.71
2023-01-23T06:05:50.907Z,1031.71
2023-01-23T06:06:50.889Z,1031.76
2023-01-23T06:07:50.907Z,1031.76
2023-01-23T06:08:50.884Z,1031.77
2023-01-23T06:09:50.872Z,1031.80
2023-01-23T06:10:50.850Z,1031.79
2023-01-23T06:11:50.840Z,1031.81
2023-01-23T06:12:50.821Z,1031.81
2023-01-23T06:13:50.821Z,1031.80
2023-01-23T06:14:50.816Z,1031.78
2023-01-23T06:15:50.960Z,1031.83
2023-01-23T06:16:50.789Z,1031.84
2023-01-23T06:17:50.931Z,1031.83
2023-01-23T06:18:50.810Z,1031.88
2023-01-23T06:19:50.798Z,1031.90
2023-01-23T06:20:50.738Z,1031.91
2023-01-23T06:21:50.717Z,1031.90
2023-01-23T06:22:50.751Z,1031.89
2023-01-23T06:23:50.734Z,1031.86
2023-01-23T06:24:50.708Z,1031.93
2023-01-23T06:25:50.711Z,1031.91
2023-01-23T06:26:51.342Z,1031.90
2023-01-23T06:27:50.728Z,1031.89
2023-01-23T06:28:50.656Z,1031.89
2023-01-23T06:29:50.677Z,1031.92
2023-01-23T06:30:51.352Z,1031.92
2023-01-23T06:31:50.718Z,1031.92
2023-01-23T06:32:50.618Z,1031.92
2023-01-23T06:33:51.269Z,1031.94
2023-01-23T06:34:50.595Z,1031.92
2023-01-23T06:35:51.539Z,1031.92
2023-01-23T06:36:50.579Z,1031.90
2023-01-23T06:37:50.680Z,1031.96
2023-01-23T06:38:50.561Z,1031.97
2023-01-23T06:39:50.627Z,1031.96
2023-01-23T06:40:50.539Z,1032.03
2023-01-23T06:41:50.518Z,1032.05
2023-01-23T06:42:50.508Z,1032.13
2023-01-23T06:43:50.551Z,1032.13
2023-01-23T06:44:50.479Z,1032.08
2023-01-23T06:45:50.528Z,1032.14
2023-01-23T06:46:50.647Z,1032.13
2023-01-23T06:47:50.485Z,1032.20
2023-01-23T06:48:50.429Z,1032.21
2023-01-23T06:49:50.434Z,1032.20
2023-01-23T06:50:50.442Z,1032.18
2023-01-23T06:51:51.121Z,1032.19
2023-01-23T06:52:50.390Z,1032.20
2023-01-23T06:53:50.409Z,1032.19
2023-01-23T06:54:50.368Z,1032.17
2023-01-23T06:55:50.345Z,1032.16
2023-01-23T06:56:50.327Z,1032.17
2023-01-23T06:57:50.339Z,1032.19
2023-01-23T06:58:50.325Z,1032.17
2023-01-23T06:59:50.296Z,1032.13
2023-01-23T07:00:50.375Z,1032.17
2023-01-23T07:01:50.339Z,1032.22
2023-01-23T07:02:50.287Z,1032.17
2023-01-23T07:03:50.328Z,1032.19
2023-01-23T07:04:50.253Z,1032.21
2023-01-23T07:05:50.235Z,1032.17
2023-01-23T07:06:50.225Z,1032.16
2023-01-23T07:07:50.285Z,1032.19
2023-01-23T07:08:50.240Z,1032.22
2023-01-23T07:09:50.239Z,1032.20
2023-01-23T07:10:50.192Z,1032.23
2023-01-23T07:11:50.196Z,1032.22
2023-01-23T07:12:50.155Z,1032.20
2023-01-23T07:13:50.196Z,1032.20
2023-01-23T07:14:50.168Z,1032.23
2023-01-23T07:15:50.186Z,1032.25
2023-01-23T07:16:50.124Z,1032.22
2023-01-23T07:17:50.122Z,1032.30
2023-01-23T07:18:50.106Z,1032.34
2023-01-23T07:19:50.077Z,1032.34
2023-01-23T07:20:50.091Z,1032.35
2023-01-23T07:21:50.078Z,1032.35
2023-01-23T07:22:50.052Z,1032.35
2023-01-23T07:23:50.702Z,1032.40
2023-01-23T07:24:50.072Z,1032.35
2023-01-23T07:25:50.056Z,1032.36
2023-01-23T07:26:50.039Z,1032.37
2023-01-23T07:27:50.001Z,1032.35
2023-01-23T07:28:49.998Z,1032.36
2023-01-23T07:29:50.079Z,1032.34
2023-01-23T07:30:50.011Z,1032.32
2023-01-23T07:31:50.004Z,1032.34
2023-01-23T07:32:49.966Z,1032.34
2023-01-23T07:33:49.926Z,1032.32
2023-01-23T07:34:49.923Z,1032.33
2023-01-23T07:35:49.900Z,1032.34
2023-01-23T07:36:49.966Z,1032.34
2023-01-23T07:37:49.969Z,1032.35
2023-01-23T07:38:49.890Z,1032.33
2023-01-23T07:39:49.876Z,1032.31
2023-01-23T07:40:49.873Z,1032.33
2023-01-23T07:41:49.858Z,1032.32
2023-01-23T07:42:49.842Z,1032.35
2023-01-23T07:43:49.834Z,1032.34
2023-01-23T07:44:49.818Z,1032.37
2023-01-23T07:45:49.800Z,1032.38
2023-01-23T07:46:49.901Z,1032.39
2023-01-23T07:47:49.797Z,1032.36
2023-01-23T07:48:49.790Z,1032.37
2023-01-23T07:49:49.775Z,1032.38
2023-01-23T07:50:49.804Z,1032.39
2023-01-23T07:51:49.748Z,1032.38
2023-01-23T07:52:49.737Z,1032.38
2023-01-23T07:53:49.744Z,1032.39
2023-01-23T07:54:49.726Z,1032.38
2023-01-23T07:55:49.696Z,1032.38
2023-01-23T07:56:49.686Z,1032.37
2023-01-23T07:57:49.696Z,1032.38
2023-01-23T07:58:49.699Z,1032.39
2023-01-23T07:59:49.661Z,1032.36
2023-01-23T08:00:49.716Z,1032.37
2023-01-23T08:01:49.640Z,1032.36
2023-01-23T08:02:49.633Z,1032.41
2023-01-23T08:03:49.639Z,1032.38
2023-01-23T08:04:49.604Z,1032.41
2023-01-23T08:05:49.619Z,1032.40
2023-01-23T08:06:49.579Z,1032.45
2023-01-23T08:07:50.980Z,1032.45
2023-01-23T08:08:49.549Z,1032.47
2023-01-23T08:09:49.625Z,1032.48
2023-01-23T08:10:49.558Z,1032.47
2023-01-23T08:11:49.522Z,1032.50
2023-01-23T08:12:49.528Z,1032.47
2023-01-23T08:13:49.529Z,1032.50
2023-01-23T08:14:49.479Z,1032.49
2023-01-23T08:15:49.509Z,1032.45
2023-01-23T08:16:49.484Z,1032.49
2023-01-23T08:17:49.439Z,1032.47
2023-01-23T08:18:49.438Z,1032.50
2023-01-23T08:19:49.441Z,1032.51
2023-01-23T08:20:49.412Z,1032.52
2023-01-23T08:21:49.390Z,1032.54
2023-01-23T08:22:49.441Z,1032.54
2023-01-23T08:23:49.394Z,1032.56
2023-01-23T08:24:49.372Z,1032.56
2023-01-23T08:25:50.110Z,1032.62
2023-01-23T08:26:49.364Z,1032.64
2023-01-23T08:27:49.331Z,1032.63
2023-01-23T08:28:49.352Z,1032.68
2023-01-23T08:29:49.332Z,1032.71
2023-01-23T08:30:49.342Z,1032.72
2023-01-23T08:31:49.362Z,1032.73
2023-01-23T08:32:49.303Z,1032.74
2023-01-23T08:33:49.278Z,1032.76
2023-01-23T08:34:49.283Z,1032.82
2023-01-23T08:35:49.275Z,1032.78
2023-01-23T08:36:49.348Z,1032.75
2023-01-23T08:41:35.498Z,1032.87
2023-01-23T08:42:35.496Z,1032.89
2023-01-23T08:43:35.569Z,1032.93
2023-01-23T08:44:35.465Z,1032.90
2023-01-23T08:45:35.606Z,1032.91
2023-01-23T08:46:35.453Z,1032.96
2023-01-23T08:47:35.456Z,1033.02
2023-01-23T08:48:35.557Z,1033.03
2023-01-23T08:49:35.422Z,1033.05
2023-01-23T08:50:35.438Z,1033.04
2023-01-23T08:51:35.402Z,1033.04
2023-01-23T08:52:35.420Z,1033.02
2023-01-23T08:53:35.369Z,1033.01
2023-01-23T08:54:35.387Z,1033.00
2023-01-23T08:55:35.345Z,1032.99
2023-01-23T08:56:35.329Z,1033.03
2023-01-23T08:57:35.439Z,1033.00
2023-01-23T08:58:35.341Z,1033.03
2023-01-23T08:59:35.328Z,1033.08
2023-01-23T09:00:35.353Z,1033.06
2023-01-23T09:01:35.314Z,1033.11
2023-01-23T09:02:35.285Z,1033.09
2023-01-23T09:03:35.509Z,1033.13
2023-01-23T09:04:35.246Z,1033.13
2023-01-23T09:05:35.224Z,1033.12
2023-01-23T09:06:35.920Z,1033.13
2023-01-23T09:07:35.228Z,1033.14
2023-01-23T09:08:36.101Z,1033.20
2023-01-23T09:09:35.200Z,1033.21
2023-01-23T09:10:37.931Z,1033.20
2023-01-23T09:11:35.188Z,1033.26
2023-01-23T09:12:35.179Z,1033.28
2023-01-23T09:13:35.147Z,1033.29
2023-01-23T09:14:35.163Z,1033.31
2023-01-23T09:15:35.138Z,1033.30
2023-01-23T09:16:36.005Z,1033.30
2023-01-23T09:17:35.137Z,1033.30
2023-01-23T09:18:35.191Z,1033.32
2023-01-23T09:19:35.097Z,1033.36
2023-01-23T09:20:35.096Z,1033.34
2023-01-23T09:21:35.073Z,1033.37
2023-01-23T09:22:35.060Z,1033.36
2023-01-23T09:23:35.180Z,1033.39
2023-01-23T09:24:35.024Z,1033.35
2023-01-23T09:25:35.024Z,1033.38
2023-01-23T09:26:35.040Z,1033.38
2023-01-23T09:27:35.009Z,1033.41
2023-01-23T09:28:34.999Z,1033.43
2023-01-23T09:29:34.991Z,1033.44
2023-01-23T09:30:34.985Z,1033.46
2023-01-23T09:31:34.970Z,1033.49
2023-01-23T09:32:35.058Z,1033.55
2023-01-23T09:33:34.994Z,1033.54
2023-01-23T09:34:34.939Z,1033.57
2023-01-23T09:35:34.906Z,1033.59
2023-01-23T09:36:42.951Z,1033.57
2023-01-23T09:37:35.884Z,1033.57
2023-01-23T09:38:34.862Z,1033.55
2023-01-23T09:39:34.914Z,1033.58
2023-01-23T09:40:34.879Z,1033.55
2023-01-23T09:41:34.964Z,1033.53
2023-01-23T09:42:34.846Z,1033.56
2023-01-23T09:43:34.838Z,1033.52
2023-01-23T09:44:34.836Z,1033.52
2023-01-23T09:45:35.027Z,1033.50
2023-01-23T09:46:34.809Z,1033.48
2023-01-23T09:47:34.775Z,1033.49
2023-01-23T09:48:34.773Z,1033.47
2023-01-23T09:49:34.778Z,1033.46
2023-01-23T09:50:34.793Z,1033.47
2023-01-23T09:51:34.754Z,1033.50
2023-01-23T09:52:34.748Z,1033.47
2023-01-23T09:53:34.723Z,1033.53
2023-01-23T09:54:34.737Z,1033.52
2023-01-23T09:55:34.695Z,1033.52
2023-01-23T09:56:34.692Z,1033.56
2023-01-23T09:57:34.708Z,1033.56
2023-01-23T09:58:34.684Z,1033.56
2023-01-23T09:59:34.667Z,1033.56
2023-01-23T10:00:34.654Z,1033.57
2023-01-23T10:01:34.745Z,1033.54
2023-01-23T10:02:34.649Z,1033.57
2023-01-23T10:03:34.626Z,1033.55
2023-01-23T10:04:34.603Z,1033.56
2023-01-23T10:05:34.601Z,1033.60
2023-01-23T10:06:34.583Z,1033.56
2023-01-23T10:07:34.588Z,1033.60
2023-01-23T10:08:34.540Z,1033.58
2023-01-23T10:09:34.555Z,1033.56
2023-01-23T10:10:35.285Z,1033.58
2023-01-23T10:11:34.546Z,1033.59
2023-01-23T10:12:34.524Z,1033.61
2023-01-23T10:13:34.517Z,1033.60
2023-01-23T10:14:36.504Z,1033.57
2023-01-23T10:15:34.495Z,1033.58
2023-01-23T10:16:49.158Z,1033.60
2023-01-23T10:17:35.475Z,1033.58
2023-01-23T10:18:34.454Z,1033.59
2023-01-23T10:19:34.452Z,1033.61
2023-01-23T10:20:34.445Z,1033.56
2023-01-23T10:21:34.416Z,1033.62
2023-01-23T10:22:34.421Z,1033.61
2023-01-23T10:23:34.415Z,1033.62
2023-01-23T10:24:40.143Z,1033.62
2023-01-23T10:25:35.402Z,1033.67
2023-01-23T10:26:34.364Z,1033.66
2023-01-23T10:27:34.373Z,1033.66
2023-01-23T10:28:34.331Z,1033.66
2023-01-23T10:29:34.358Z,1033.69
2023-01-23T10:30:34.506Z,1033.67
2023-01-23T10:31:35.319Z,1033.69
2023-01-23T10:33:34.316Z,1033.71
2023-01-23T10:34:34.315Z,1033.72
2023-01-23T10:35:34.277Z,1033.72
2023-01-23T10:36:47.676Z,1033.74
2023-01-23T10:37:35.264Z,1033.74
2023-01-23T10:38:34.232Z,1033.77
2023-01-23T10:39:34.219Z,1033.76
2023-01-23T10:40:34.283Z,1033.79
2023-01-23T10:41:34.250Z,1033.78
2023-01-23T10:42:34.190Z,1033.79
2023-01-23T10:43:34.197Z,1033.78
2023-01-23T10:44:34.186Z,1033.79
2023-01-23T10:45:34.173Z,1033.79
2023-01-23T10:46:34.305Z,1033.75
2023-01-23T10:47:34.499Z,1033.76
2023-01-23T10:48:34.144Z,1033.71
2023-01-23T10:49:34.122Z,1033.71
2023-01-23T10:50:34.121Z,1033.72
2023-01-23T10:51:34.223Z,1033.66
2023-01-23T10:52:34.162Z,1033.68
2023-01-23T10:53:34.117Z,1033.66
2023-01-23T10:54:34.156Z,1033.65
2023-01-23T10:55:34.088Z,1033.66
2023-01-23T10:56:34.056Z,1033.71
2023-01-23T10:57:34.067Z,1033.70
2023-01-23T10:58:34.041Z,1033.65
2023-01-23T10:59:34.030Z,1033.69
2023-01-23T11:00:34.036Z,1033.68
2023-01-23T11:01:34.075Z,1033.67
2023-01-23T11:02:34.090Z,1033.64
2023-01-23T11:03:34.008Z,1033.65
2023-01-23T11:04:33.948Z,1033.64
2023-01-23T11:05:43.484Z,1033.66
2023-01-23T11:06:34.931Z,1033.61
2023-01-23T11:07:33.932Z,1033.67
2023-01-23T11:08:33.913Z,1033.66
2023-01-23T11:09:33.921Z,1033.68
2023-01-23T11:10:33.886Z,1033.71
2023-01-23T11:11:33.921Z,1033.68
2023-01-23T11:12:34.301Z,1033.72
2023-01-23T11:13:33.881Z,1033.67
2023-01-23T11:14:33.874Z,1033.68
2023-01-23T11:15:33.936Z,1033.67
2023-01-23T11:16:33.861Z,1033.63
2023-01-23T11:17:33.812Z,1033.62
2023-01-23T11:18:33.806Z,1033.63
2023-01-23T11:19:33.827Z,1033.57
2023-01-23T11:20:33.798Z,1033.53
2023-01-23T11:21:33.794Z,1033.55
2023-01-23T11:22:33.774Z,1033.53
2023-01-23T11:23:33.801Z,1033.52
2023-01-23T11:24:40.311Z,1033.53
2023-01-23T11:25:34.740Z,1033.53
2023-01-23T11:26:33.773Z,1033.52
2023-01-23T11:27:33.701Z,1033.53
2023-01-23T11:28:33.708Z,1033.49
2023-01-23T11:29:33.714Z,1033.48
2023-01-23T11:30:33.735Z,1033.49
2023-01-23T11:31:33.819Z,1033.47
2023-01-23T11:32:33.701Z,1033.50
2023-01-23T11:33:33.670Z,1033.51
2023-01-23T11:34:33.668Z,1033.49
2023-01-23T11:35:33.634Z,1033.52
2023-01-23T11:36:33.720Z,1033.50
2023-01-23T11:37:33.593Z,1033.48
2023-01-23T11:38:34.457Z,1033.48
2023-01-23T11:39:33.593Z,1033.49
2023-01-23T11:40:33.566Z,1033.52
2023-01-23T11:41:33.587Z,1033.52
2023-01-23T11:42:33.582Z,1033.48
2023-01-23T11:43:33.571Z,1033.49
2023-01-23T11:44:45.048Z,1033.46
2023-01-23T11:45:34.528Z,1033.44
2023-01-23T11:46:33.606Z,1033.43
2023-01-23T11:47:33.504Z,1033.44
2023-01-23T11:48:33.480Z,1033.45
2023-01-23T11:49:33.469Z,1033.45
2023-01-23T11:50:35.400Z,1033.45
2023-01-23T11:51:33.533Z,1033.45
2023-01-23T11:52:33.470Z,1033.46
2023-01-23T11:53:41.747Z,1033.41
2023-01-23T11:54:34.433Z,1033.42
2023-01-23T11:55:34.812Z,1033.39
2023-01-23T11:56:33.539Z,1033.38
2023-01-23T11:57:33.393Z,1033.38
2023-01-23T11:58:37.160Z,1033.37
2023-01-23T11:59:34.365Z,1033.37
2023-01-23T12:00:33.381Z,1033.37
2023-01-23T12:01:33.341Z,1033.41
2023-01-23T12:02:33.403Z,1033.38
2023-01-23T12:03:33.444Z,1033.40
2023-01-23T12:04:33.456Z,1033.38
2023-01-23T12:05:33.302Z,1033.39
2023-01-23T12:06:33.511Z,1033.33
2023-01-23T12:07:33.318Z,1033.34
2023-01-23T12:08:33.326Z,1033.37
2023-01-23T12:09:33.298Z,1033.30
2023-01-23T12:10:33.341Z,1033.32